sensor_id;sensor_type;location;lat;lon;timestamp;temperature;humidity
22426;DHT22;11380;50.822;15.790;2022-09-24T00:04:46;7.00;99.90
22426;DHT22;11380;50.822;15.790;2022-09-24T00:09:51;6.90;99.90
22426;DHT22;11380;50.822;15.790;2022-09-24T00:14:56;7.00;99.90
22426;DHT22;11380;50.822;15.790;2022-09-24T00:20:02;7.10;99.90
22426;DHT22;11380;50.822;15.790;2022-09-24T00:25:09;7.10;99.90
22426;DHT22;11380;50.822;15.790;2022-09-24T00:30:32;7.30;99.90
22426;DHT22;11380;50.822;15.790;2022-09-24T00:35:37;7.30;62.50
22426;DHT22;11380;50.822;15.790;2022-09-24T00:40:46;7.30;37.80
22426;DHT22;11380;50.822;15.790;2022-09-24T00:45:57;7.40;30.80
22426;DHT22;11380;50.822;15.790;2022-09-24T00:51:03;7.30;99.90
22426;DHT22;11380;50.822;15.790;2022-09-24T00:56:11;7.30;99.90
22426;DHT22;11380;50.822;15.790;2022-09-24T01:01:21;7.30;99.90
22426;DHT22;11380;50.822;15.790;2022-09-24T01:06:28;7.20;99.90
22426;DHT22;11380;50.822;15.790;2022-09-24T01:11:59;7.20;99.90
22426;DHT22;11380;50.822;15.790;2022-09-24T01:28:13;7.20;99.90
22426;DHT22;11380;50.822;15.790;2022-09-24T01:33:19;7.20;99.90
22426;DHT22;11380;50.822;15.790;2022-09-24T01:38:29;7.40;99.90
22426;DHT22;11380;50.822;15.790;2022-09-24T01:43:36;7.30;99.90
22426;DHT22;11380;50.822;15.790;2022-09-24T01:48:42;7.30;99.90
22426;DHT22;11380;50.822;15.790;2022-09-24T01:53:50;7.50;99.90
22426;DHT22;11380;50.822;15.790;2022-09-24T01:59:01;7.50;99.90
22426;DHT22;11380;50.822;15.790;2022-09-24T02:04:05;7.40;99.90
22426;DHT22;11380;50.822;15.790;2022-09-24T02:14:41;7.50;99.90
22426;DHT22;11380;50.822;15.790;2022-09-24T02:19:47;7.60;99.90
22426;DHT22;11380;50.822;15.790;2022-09-24T02:24:57;7.40;99.90
22426;DHT22;11380;50.822;15.790;2022-09-24T02:30:05;7.50;99.90
22426;DHT22;11380;50.822;15.790;2022-09-24T02:35:12;7.60;99.90
22426;DHT22;11380;50.822;15.790;2022-09-24T02:40:19;7.60;99.90
22426;DHT22;11380;50.822;15.790;2022-09-24T02:45:25;7.50;59.00
22426;DHT22;11380;50.822;15.790;2022-09-24T02:50:31;7.30;99.90
22426;DHT22;11380;50.822;15.790;2022-09-24T02:55:36;7.40;99.90
22426;DHT22;11380;50.822;15.790;2022-09-24T03:00:40;7.40;99.90
22426;DHT22;11380;50.822;15.790;2022-09-24T03:05:46;7.40;99.90
22426;DHT22;11380;50.822;15.790;2022-09-24T03:10:52;7.40;99.90
22426;DHT22;11380;50.822;15.790;2022-09-24T03:15:59;7.30;99.90
22426;DHT22;11380;50.822;15.790;2022-09-24T03:21:07;7.50;99.90
22426;DHT22;11380;50.822;15.790;2022-09-24T03:26:13;7.50;99.90
22426;DHT22;11380;50.822;15.790;2022-09-24T03:31:20;7.50;99.90
22426;DHT22;11380;50.822;15.790;2022-09-24T03:36:28;7.50;99.90
22426;DHT22;11380;50.822;15.790;2022-09-24T03:41:32;7.50;99.90
22426;DHT22;11380;50.822;15.790;2022-09-24T03:46:38;7.20;99.90
22426;DHT22;11380;50.822;15.790;2022-09-24T03:51:44;7.10;99.90
22426;DHT22;11380;50.822;15.790;2022-09-24T03:56:49;7.30;99.90
22426;DHT22;11380;50.822;15.790;2022-09-24T04:01:55;7.40;99.90
22426;DHT22;11380;50.822;15.790;2022-09-24T04:07:00;7.20;99.90
22426;DHT22;11380;50.822;15.790;2022-09-24T04:12:05;7.30;99.90
22426;DHT22;11380;50.822;15.790;2022-09-24T04:17:10;7.20;99.90
22426;DHT22;11380;50.822;15.790;2022-09-24T04:22:17;7.10;99.90
22426;DHT22;11380;50.822;15.790;2022-09-24T04:27:22;7.00;99.90
22426;DHT22;11380;50.822;15.790;2022-09-24T04:32:28;7.10;99.90
22426;DHT22;11380;50.822;15.790;2022-09-24T04:37:33;6.90;99.90
22426;DHT22;11380;50.822;15.790;2022-09-24T04:42:39;6.90;99.90
22426;DHT22;11380;50.822;15.790;2022-09-24T04:47:49;6.80;99.90
22426;DHT22;11380;50.822;15.790;2022-09-24T04:52:56;6.90;99.90
22426;DHT22;11380;50.822;15.790;2022-09-24T04:58:02;6.90;99.90
22426;DHT22;11380;50.822;15.790;2022-09-24T05:03:09;6.70;99.90
22426;DHT22;11380;50.822;15.790;2022-09-24T05:08:15;6.60;99.90
22426;DHT22;11380;50.822;15.790;2022-09-24T05:13:20;6.60;99.90
22426;DHT22;11380;50.822;15.790;2022-09-24T05:18:27;6.80;99.90
22426;DHT22;11380;50.822;15.790;2022-09-24T05:23:33;6.80;99.90
22426;DHT22;11380;50.822;15.790;2022-09-24T05:28:38;6.70;99.90
22426;DHT22;11380;50.822;15.790;2022-09-24T05:33:45;6.80;99.90
22426;DHT22;11380;50.822;15.790;2022-09-24T05:38:50;6.90;99.90
22426;DHT22;11380;50.822;15.790;2022-09-24T05:43:56;7.00;99.90
22426;DHT22;11380;50.822;15.790;2022-09-24T05:49:01;7.10;99.90
22426;DHT22;11380;50.822;15.790;2022-09-24T05:54:06;7.30;99.90
22426;DHT22;11380;50.822;15.790;2022-09-24T05:59:12;7.50;99.90
22426;DHT22;11380;50.822;15.790;2022-09-24T06:04:17;7.60;99.90
22426;DHT22;11380;50.822;15.790;2022-09-24T06:09:22;7.70;99.90
22426;DHT22;11380;50.822;15.790;2022-09-24T06:14:28;7.80;99.90
22426;DHT22;11380;50.822;15.790;2022-09-24T06:19:35;7.80;99.90
22426;DHT22;11380;50.822;15.790;2022-09-24T06:24:41;7.90;99.90
22426;DHT22;11380;50.822;15.790;2022-09-24T06:29:47;7.90;99.90
22426;DHT22;11380;50.822;15.790;2022-09-24T06:34:52;8.20;99.90
22426;DHT22;11380;50.822;15.790;2022-09-24T06:39:59;8.20;99.90
22426;DHT22;11380;50.822;15.790;2022-09-24T06:45:04;8.40;99.90
22426;DHT22;11380;50.822;15.790;2022-09-24T06:50:10;8.80;99.90
22426;DHT22;11380;50.822;15.790;2022-09-24T06:55:16;9.10;99.90
22426;DHT22;11380;50.822;15.790;2022-09-24T07:00:22;9.10;41.50
22426;DHT22;11380;50.822;15.790;2022-09-24T07:05:28;9.20;22.80
22426;DHT22;11380;50.822;15.790;2022-09-24T07:10:33;9.40;55.90
22426;DHT22;11380;50.822;15.790;2022-09-24T07:15:39;9.30;21.70
22426;DHT22;11380;50.822;15.790;2022-09-24T07:20:54;9.50;99.90
22426;DHT22;11380;50.822;15.790;2022-09-24T07:25:59;9.70;87.80
22426;DHT22;11380;50.822;15.790;2022-09-24T07:31:04;10.00;35.40
22426;DHT22;11380;50.822;15.790;2022-09-24T07:36:10;10.20;1.00
22426;DHT22;11380;50.822;15.790;2022-09-24T07:41:15;10.20;1.00
22426;DHT22;11380;50.822;15.790;2022-09-24T07:46:22;10.20;1.00
22426;DHT22;11380;50.822;15.790;2022-09-24T07:51:28;10.40;1.00
22426;DHT22;11380;50.822;15.790;2022-09-24T07:56:35;10.60;1.00
22426;DHT22;11380;50.822;15.790;2022-09-24T08:01:41;11.00;1.00
22426;DHT22;11380;50.822;15.790;2022-09-24T08:06:47;11.80;1.00
22426;DHT22;11380;50.822;15.790;2022-09-24T08:11:52;12.30;1.00
22426;DHT22;11380;50.822;15.790;2022-09-24T08:16:58;12.30;1.00
22426;DHT22;11380;50.822;15.790;2022-09-24T08:22:05;12.50;1.00
22426;DHT22;11380;50.822;15.790;2022-09-24T08:27:12;12.50;1.00
22426;DHT22;11380;50.822;15.790;2022-09-24T08:32:19;13.10;1.00
22426;DHT22;11380;50.822;15.790;2022-09-24T08:37:27;13.70;1.00
22426;DHT22;11380;50.822;15.790;2022-09-24T08:42:45;13.60;1.00
22426;DHT22;11380;50.822;15.790;2022-09-24T08:47:52;13.80;1.00
22426;DHT22;11380;50.822;15.790;2022-09-24T08:53:21;13.70;1.00
22426;DHT22;11380;50.822;15.790;2022-09-24T08:58:49;13.70;1.00
22426;DHT22;11380;50.822;15.790;2022-09-24T09:03:53;14.50;1.00
22426;DHT22;11380;50.822;15.790;2022-09-24T09:09:21;15.10;1.00
22426;DHT22;11380;50.822;15.790;2022-09-24T09:14:38;15.70;1.00
22426;DHT22;11380;50.822;15.790;2022-09-24T09:19:47;16.30;1.00
22426;DHT22;11380;50.822;15.790;2022-09-24T09:25:02;16.60;99.90
22426;DHT22;11380;50.822;15.790;2022-09-24T09:30:11;17.20;99.90
22426;DHT22;11380;50.822;15.790;2022-09-24T09:35:33;16.70;99.90
22426;DHT22;11380;50.822;15.790;2022-09-24T09:40:52;17.50;99.90
22426;DHT22;11380;50.822;15.790;2022-09-24T09:51:20;18.20;96.50
22426;DHT22;11380;50.822;15.790;2022-09-24T10:01:49;18.30;95.30
22426;DHT22;11380;50.822;15.790;2022-09-24T10:12:21;18.20;89.80
22426;DHT22;11380;50.822;15.790;2022-09-24T10:17:33;17.80;91.80
22426;DHT22;11380;50.822;15.790;2022-09-24T10:22:45;18.40;91.80
22426;DHT22;11380;50.822;15.790;2022-09-24T10:27:58;18.40;89.50
22426;DHT22;11380;50.822;15.790;2022-09-24T10:33:22;18.30;91.00
22426;DHT22;11380;50.822;15.790;2022-09-24T10:38:28;18.80;88.60
22426;DHT22;11380;50.822;15.790;2022-09-24T10:43:34;17.90;87.50
22426;DHT22;11380;50.822;15.790;2022-09-24T10:48:44;18.10;89.50
22426;DHT22;11380;50.822;15.790;2022-09-24T10:54:26;18.30;90.00
22426;DHT22;11380;50.822;15.790;2022-09-24T10:59:55;18.60;90.70
22426;DHT22;11380;50.822;15.790;2022-09-24T11:05:03;17.40;87.80
22426;DHT22;11380;50.822;15.790;2022-09-24T11:16:20;17.70;91.80
22426;DHT22;11380;50.822;15.790;2022-09-24T11:21:49;18.00;89.60
22426;DHT22;11380;50.822;15.790;2022-09-24T11:32:32;18.10;89.30
22426;DHT22;11380;50.822;15.790;2022-09-24T11:43:02;18.80;90.10
22426;DHT22;11380;50.822;15.790;2022-09-24T11:48:20;18.60;90.40
22426;DHT22;11380;50.822;15.790;2022-09-24T11:53:33;17.70;88.40
22426;DHT22;11380;50.822;15.790;2022-09-24T11:58:59;17.20;91.70
22426;DHT22;11380;50.822;15.790;2022-09-24T12:04:26;17.40;92.40
22426;DHT22;11380;50.822;15.790;2022-09-24T12:09:37;17.80;91.50
22426;DHT22;11380;50.822;15.790;2022-09-24T12:14:52;18.20;88.70
22426;DHT22;11380;50.822;15.790;2022-09-24T12:20:00;18.70;89.30
22426;DHT22;11380;50.822;15.790;2022-09-24T12:25:10;17.90;85.90
22426;DHT22;11380;50.822;15.790;2022-09-24T12:30:38;17.90;86.60
22426;DHT22;11380;50.822;15.790;2022-09-24T12:36:25;18.00;90.00
22426;DHT22;11380;50.822;15.790;2022-09-24T12:41:36;17.90;90.40
22426;DHT22;11380;50.822;15.790;2022-09-24T12:46:53;18.30;90.20
22426;DHT22;11380;50.822;15.790;2022-09-24T12:52:02;18.80;88.90
22426;DHT22;11380;50.822;15.790;2022-09-24T12:57:22;18.50;90.20
22426;DHT22;11380;50.822;15.790;2022-09-24T13:02:53;18.10;85.30
22426;DHT22;11380;50.822;15.790;2022-09-24T13:07:41;18.60;87.60
22426;DHT22;11380;50.822;15.790;2022-09-24T13:12:47;18.90;86.60
22426;DHT22;11380;50.822;15.790;2022-09-24T13:28:27;19.00;85.80
22426;DHT22;11380;50.822;15.790;2022-09-24T13:33:41;18.70;89.30
22426;DHT22;11380;50.822;15.790;2022-09-24T13:38:55;18.70;89.40
22426;DHT22;11380;50.822;15.790;2022-09-24T13:44:03;18.20;90.80
22426;DHT22;11380;50.822;15.790;2022-09-24T13:49:17;18.20;91.90
22426;DHT22;11380;50.822;15.790;2022-09-24T13:54:30;18.50;90.90
22426;DHT22;11380;50.822;15.790;2022-09-24T13:59:37;18.40;93.10
22426;DHT22;11380;50.822;15.790;2022-09-24T14:04:43;18.10;92.10
22426;DHT22;11380;50.822;15.790;2022-09-24T14:10:03;18.00;93.80
22426;DHT22;11380;50.822;15.790;2022-09-24T14:15:17;17.90;92.10
22426;DHT22;11380;50.822;15.790;2022-09-24T14:20:24;17.90;92.90
22426;DHT22;11380;50.822;15.790;2022-09-24T14:25:32;17.20;93.00
22426;DHT22;11380;50.822;15.790;2022-09-24T14:30:53;16.90;93.50
22426;DHT22;11380;50.822;15.790;2022-09-24T14:36:01;17.00;93.50
22426;DHT22;11380;50.822;15.790;2022-09-24T14:41:27;17.10;92.90
22426;DHT22;11380;50.822;15.790;2022-09-24T14:46:34;17.00;95.90
22426;DHT22;11380;50.822;15.790;2022-09-24T14:51:58;16.40;94.90
22426;DHT22;11380;50.822;15.790;2022-09-24T14:57:23;16.60;95.50
22426;DHT22;11380;50.822;15.790;2022-09-24T15:16:48;16.30;96.10
22426;DHT22;11380;50.822;15.790;2022-09-24T15:21:56;16.10;99.60
22426;DHT22;11380;50.822;15.790;2022-09-24T15:27:19;16.00;99.90
22426;DHT22;11380;50.822;15.790;2022-09-24T15:32:26;15.80;99.90
22426;DHT22;11380;50.822;15.790;2022-09-24T15:37:31;15.70;99.90
22426;DHT22;11380;50.822;15.790;2022-09-24T15:42:36;15.60;99.90
22426;DHT22;11380;50.822;15.790;2022-09-24T15:47:42;15.40;99.90
22426;DHT22;11380;50.822;15.790;2022-09-24T15:52:52;15.20;99.90
22426;DHT22;11380;50.822;15.790;2022-09-24T15:57:58;15.10;99.90
22426;DHT22;11380;50.822;15.790;2022-09-24T16:03:05;15.00;99.90
22426;DHT22;11380;50.822;15.790;2022-09-24T16:08:11;14.80;99.90
22426;DHT22;11380;50.822;15.790;2022-09-24T16:13:17;14.60;99.90
22426;DHT22;11380;50.822;15.790;2022-09-24T16:18:25;14.50;99.90
22426;DHT22;11380;50.822;15.790;2022-09-24T16:23:31;14.20;99.90
22426;DHT22;11380;50.822;15.790;2022-09-24T16:28:36;14.00;99.90
22426;DHT22;11380;50.822;15.790;2022-09-24T16:33:41;13.90;99.90
22426;DHT22;11380;50.822;15.790;2022-09-24T16:38:46;13.90;99.90
22426;DHT22;11380;50.822;15.790;2022-09-24T16:43:55;13.80;99.90
22426;DHT22;11380;50.822;15.790;2022-09-24T16:49:01;13.80;99.90
22426;DHT22;11380;50.822;15.790;2022-09-24T16:54:08;13.80;99.90
22426;DHT22;11380;50.822;15.790;2022-09-24T16:59:15;13.60;99.90
22426;DHT22;11380;50.822;15.790;2022-09-24T17:04:20;13.60;99.90
22426;DHT22;11380;50.822;15.790;2022-09-24T17:09:26;13.50;99.90
22426;DHT22;11380;50.822;15.790;2022-09-24T17:14:49;13.60;99.90
22426;DHT22;11380;50.822;15.790;2022-09-24T17:19:55;13.50;99.90
22426;DHT22;11380;50.822;15.790;2022-09-24T17:25:00;13.50;99.90
22426;DHT22;11380;50.822;15.790;2022-09-24T17:30:06;13.10;99.90
22426;DHT22;11380;50.822;15.790;2022-09-24T17:35:13;13.00;99.90
22426;DHT22;11380;50.822;15.790;2022-09-24T17:40:19;12.90;99.90
22426;DHT22;11380;50.822;15.790;2022-09-24T17:45:26;12.70;99.90
22426;DHT22;11380;50.822;15.790;2022-09-24T17:50:32;12.60;99.90
22426;DHT22;11380;50.822;15.790;2022-09-24T17:55:46;12.50;99.90
22426;DHT22;11380;50.822;15.790;2022-09-24T18:00:49;12.30;99.90
22426;DHT22;11380;50.822;15.790;2022-09-24T18:05:59;12.00;99.90
22426;DHT22;11380;50.822;15.790;2022-09-24T18:11:10;11.70;99.90
22426;DHT22;11380;50.822;15.790;2022-09-24T18:16:19;11.70;99.90
22426;DHT22;11380;50.822;15.790;2022-09-24T18:21:27;11.30;99.90
22426;DHT22;11380;50.822;15.790;2022-09-24T18:26:35;11.30;99.90
22426;DHT22;11380;50.822;15.790;2022-09-24T18:31:40;11.20;99.90
22426;DHT22;11380;50.822;15.790;2022-09-24T18:36:46;10.60;99.90
22426;DHT22;11380;50.822;15.790;2022-09-24T18:41:51;10.20;99.90
22426;DHT22;11380;50.822;15.790;2022-09-24T18:46:58;10.20;1.00
22426;DHT22;11380;50.822;15.790;2022-09-24T18:52:02;10.30;1.00
22426;DHT22;11380;50.822;15.790;2022-09-24T18:57:08;10.40;1.00
22426;DHT22;11380;50.822;15.790;2022-09-24T19:02:14;10.10;1.00
22426;DHT22;11380;50.822;15.790;2022-09-24T19:07:19;10.20;1.00
22426;DHT22;11380;50.822;15.790;2022-09-24T19:12:24;10.00;1.00
22426;DHT22;11380;50.822;15.790;2022-09-24T19:17:34;9.90;1.00
22426;DHT22;11380;50.822;15.790;2022-09-24T19:22:42;9.60;1.00
22426;DHT22;11380;50.822;15.790;2022-09-24T19:27:49;9.70;1.00
22426;DHT22;11380;50.822;15.790;2022-09-24T19:32:58;9.60;1.00
22426;DHT22;11380;50.822;15.790;2022-09-24T19:38:04;9.50;1.00
22426;DHT22;11380;50.822;15.790;2022-09-24T19:43:11;9.30;1.00
22426;DHT22;11380;50.822;15.790;2022-09-24T19:48:17;9.20;1.00
22426;DHT22;11380;50.822;15.790;2022-09-24T19:53:22;9.20;1.00
22426;DHT22;11380;50.822;15.790;2022-09-24T19:58:27;9.30;1.00
22426;DHT22;11380;50.822;15.790;2022-09-24T20:03:36;9.30;1.00
22426;DHT22;11380;50.822;15.790;2022-09-24T20:08:42;9.20;1.00
22426;DHT22;11380;50.822;15.790;2022-09-24T20:13:48;9.10;1.00
22426;DHT22;11380;50.822;15.790;2022-09-24T20:18:55;9.00;1.00
22426;DHT22;11380;50.822;15.790;2022-09-24T20:24:02;8.90;1.00
22426;DHT22;11380;50.822;15.790;2022-09-24T20:29:09;8.80;1.00
22426;DHT22;11380;50.822;15.790;2022-09-24T20:34:15;8.90;1.00
22426;DHT22;11380;50.822;15.790;2022-09-24T20:39:22;8.70;1.00
22426;DHT22;11380;50.822;15.790;2022-09-24T20:44:27;8.80;1.00
22426;DHT22;11380;50.822;15.790;2022-09-24T20:49:33;8.60;1.00
22426;DHT22;11380;50.822;15.790;2022-09-24T20:54:38;8.60;1.00
22426;DHT22;11380;50.822;15.790;2022-09-24T20:59:43;8.70;1.00
22426;DHT22;11380;50.822;15.790;2022-09-24T21:04:49;8.40;1.00
22426;DHT22;11380;50.822;15.790;2022-09-24T21:09:55;8.20;1.00
22426;DHT22;11380;50.822;15.790;2022-09-24T21:15:00;7.80;1.00
22426;DHT22;11380;50.822;15.790;2022-09-24T21:20:06;7.70;1.00
22426;DHT22;11380;50.822;15.790;2022-09-24T21:25:11;8.10;1.00
22426;DHT22;11380;50.822;15.790;2022-09-24T21:30:19;8.00;1.00
22426;DHT22;11380;50.822;15.790;2022-09-24T21:35:25;7.80;1.00
22426;DHT22;11380;50.822;15.790;2022-09-24T21:40:30;7.80;1.00
22426;DHT22;11380;50.822;15.790;2022-09-24T21:45:37;7.80;1.00
22426;DHT22;11380;50.822;15.790;2022-09-24T21:50:42;7.70;1.00
22426;DHT22;11380;50.822;15.790;2022-09-24T21:55:48;7.60;1.00
22426;DHT22;11380;50.822;15.790;2022-09-24T22:00:54;7.70;1.00
22426;DHT22;11380;50.822;15.790;2022-09-24T22:06:02;7.60;1.00
22426;DHT22;11380;50.822;15.790;2022-09-24T22:11:09;7.60;1.00
22426;DHT22;11380;50.822;15.790;2022-09-24T22:16:14;7.80;1.00
22426;DHT22;11380;50.822;15.790;2022-09-24T22:21:20;7.70;1.00
22426;DHT22;11380;50.822;15.790;2022-09-24T22:26:25;7.60;1.00
22426;DHT22;11380;50.822;15.790;2022-09-24T22:31:32;7.50;1.00
22426;DHT22;11380;50.822;15.790;2022-09-24T22:36:37;7.50;1.00
22426;DHT22;11380;50.822;15.790;2022-09-24T22:41:43;7.60;1.00
22426;DHT22;11380;50.822;15.790;2022-09-24T22:46:48;7.50;1.00
22426;DHT22;11380;50.822;15.790;2022-09-24T22:51:53;7.60;1.00
22426;DHT22;11380;50.822;15.790;2022-09-24T22:56:58;7.50;1.00
22426;DHT22;11380;50.822;15.790;2022-09-24T23:02:03;7.50;1.00
22426;DHT22;11380;50.822;15.790;2022-09-24T23:07:11;7.40;1.00
22426;DHT22;11380;50.822;15.790;2022-09-24T23:12:18;7.40;1.00
22426;DHT22;11380;50.822;15.790;2022-09-24T23:17:24;7.30;1.00
22426;DHT22;11380;50.822;15.790;2022-09-24T23:22:30;7.10;1.00
22426;DHT22;11380;50.822;15.790;2022-09-24T23:27:35;7.20;1.00
22426;DHT22;11380;50.822;15.790;2022-09-24T23:32:40;7.20;1.00
22426;DHT22;11380;50.822;15.790;2022-09-24T23:37:45;7.40;1.00
22426;DHT22;11380;50.822;15.790;2022-09-24T23:42:52;7.10;1.00
22426;DHT22;11380;50.822;15.790;2022-09-24T23:47:57;7.00;1.00
22426;DHT22;11380;50.822;15.790;2022-09-24T23:53:02;7.00;1.00
22426;DHT22;11380;50.822;15.790;2022-09-24T23:58:09;7.10;1.00
